Leviticus — WDC2712 — position and weather

sailwx.info

Track history (hours):
 
Tides and Currents Weather Stations Pressure Air Temp Water Temp Dewpoint Dewpoint Depression Visibility Wind Speed Wind Dir Waves Ship Positions

Leviticus

Owner: Kirby Inland Marine, LP, Houston, TX. More information available from US FCC via Universal Licensing System and Coast Guard Vessel Documentation Center.

Last reported at 2015-Mar-30 09:19 UTC. Time now 2015-Mar-31 09:46 UTC.
Position N 38°50' W 082°09'.

Length 12 m.

Type: Other ship. MMSI: 366996690.

Date/timePositionNaut miles runAvg speedWind from/ knotsBaromVisibWave heightAir tempDewpointWater temp
2015-Mar-30 09:19N 38°50' W 082°09'0 0.0
2015-Mar-30 08:21N 38°50' W 082°09'0 0.0
2015-Mar-30 07:28N 38°50' W 082°09'0 0.0
2015-Mar-30 06:29N 38°50' W 082°09'8 7.6
2015-Mar-30 05:26N 38°57' W 082°06'  
2015-Mar-27 06:32N 38°56' W 082°07'0 0.0
2015-Mar-27 05:32N 38°56' W 082°07'0 0.0
2015-Mar-27 04:29N 38°56' W 082°07'2 1.6
2015-Mar-27 03:31N 38°57' W 082°06'5 5.6
2015-Mar-27 02:32N 38°52' W 082°08'6 5.7
2015-Mar-27 01:26N 38°47' W 082°13'  
2015-Mar-23 03:04N 38°55' W 082°07'  
Track history (hours):
 
Tides and Currents Weather Stations Pressure Air Temp Water Temp Dewpoint Dewpoint Depression Visibility Wind Speed Wind Dir Waves Ship Positions

Leviticus

Owner: Kirby Inland Marine, LP, Houston, TX. More information available from US FCC via Universal Licensing System and Coast Guard Vessel Documentation Center.

Last reported at 2015-Mar-30 09:19 UTC. Time now 2015-Mar-31 09:46 UTC.
Position N 38°50' W 082°09'.

Length 12 m.

Type: Other ship. MMSI: 366996690.

Date/timePositionNaut miles runAvg speedWind from/ knotsBaromVisibWave heightAir tempDewpointWater temp
2015-Mar-30 09:19N 38°50' W 082°09'0 0.0
2015-Mar-30 08:21N 38°50' W 082°09'0 0.0
2015-Mar-30 07:28N 38°50' W 082°09'0 0.0
2015-Mar-30 06:29N 38°50' W 082°09'8 7.6
2015-Mar-30 05:26N 38°57' W 082°06'  
2015-Mar-27 06:32N 38°56' W 082°07'0 0.0
2015-Mar-27 05:32N 38°56' W 082°07'0 0.0
2015-Mar-27 04:29N 38°56' W 082°07'2 1.6
2015-Mar-27 03:31N 38°57' W 082°06'5 5.6
2015-Mar-27 02:32N 38°52' W 082°08'6 5.7
2015-Mar-27 01:26N 38°47' W 082°13'  
2015-Mar-23 03:04N 38°55' W 082°07'  

Dump ship's entire track history